Impacts METAR Board
IDs:

KCLT - Charlotte/Douglas In, NC, US

Updated at: 0300 UTC 06 Dec 2019
Potential Impact None Slight Moderate High
Time 05/15Z 05/16Z 05/17Z 05/18Z 05/19Z 05/20Z 05/21Z 05/22Z 05/23Z 06/00Z 06/01Z 06/02Z 06/03Z
Temp52 54 57 59 60 62 62 60 56 47 51 50 47
Dewpt26 23 23 22 20 17 19 19 18 23 22 24 25
Altim30.09 30.11 30.11 30.09 30.08 30.08 30.10 30.11 30.13 30.15 30.16 30.17 30.19
VIS10 10 10 10 10 10 10 10 10 10 10 10 10
CIG250 -- -- -- -- -- -- -- -- -- -- -- --
CoverBKNSCTFEWFEWFEWFEWFEWFEWFEWSCTFEWCLRCLR
FltCatVFRVFRVFRVFRVFRVFRVFRVFRVFRVFRVFRVFRVFR
WX--------------------------
WDir034000260029031000160170150
WSpd4 9 5 3 4 4 5 4 0 0 3 4 3
WGst-- -- -- -- -- -- -- -- -- -- -- -- --
Raw hourly METARs
KCLT 051452Z VRB04KT 10SM BKN250 11/M03 A3009 RMK AO2 SLP189 T01111033 51031
KCLT 051552Z 34009KT 10SM SCT250 12/M05 A3011 RMK AO2 SLP194 T01221050
KCLT 051652Z VRB05KT 10SM FEW250 14/M05 A3011 RMK AO2 SLP193 T01391050
KCLT 051752Z VRB03KT 10SM FEW250 15/M06 A3009 RMK AO2 SLP187 T01501056 10156 20033 58001
KCLT 051852Z 26004KT 10SM FEW250 16/M07 A3008 RMK AO2 SLP184 T01561067
KCLT 051952Z VRB04KT 10SM FEW250 17/M08 A3008 RMK AO2 SLP185 T01671083
KCLT 052052Z 29005KT 10SM FEW250 17/M07 A3010 RMK AO2 SLP190 T01671072 53003
KCLT 052152Z 31004KT 10SM FEW250 16/M07 A3011 RMK AO2 SLP196 T01561072
KCLT 052252Z 00000KT 10SM FEW210 FEW250 13/M08 A3013 RMK AO2 SLP203 T01331078
KCLT 052352Z 00000KT 10SM SCT250 08/M05 A3015 RMK AO2 SLP211 T00831050 10172 20083 53018
KCLT 060052Z 16003KT 10SM FEW250 11/M06 A3016 RMK AO2 SLP215 T01061056
KCLT 060152Z 17004KT 10SM CLR 10/M04 A3017 RMK AO2 SLP217 T01001044
KCLT 060252Z 15003KT 10SM CLR 08/M04 A3019 RMK AO2 SLP222 T00831039 51013



Page loaded:  03:45 UTC  |   07:45 PM Pacific  |   08:45 PM Mountain  |   09:45 PM Central  |   10:45 PM Eastern

 

ADVISORIES

FORECASTS

FORECASTS

OBSERVATIONS

USER TOOLS

ABOUT US